Time;durP1;ratioP1;P1;durP2;ratioP2;P2;SDS_P1;SDS_P2;PMS_P1;PMS_P2;Temp;Humidity;BMP_temperature;BMP_pressure;BME280_temperature;BME280_humidity;BME280_pressure;Samples;Min_cycle;Max_cycle;Signal;HPM_P1;HPM_P2
2022/05/06 00:01:04;;;;;;;10.40;9.40;;;;;;;10.06;77.30;98327.29;105483;1288;23131;-80
2022/05/06 00:03:32;;;;;;;14.70;13.40;;;;;;;10.06;77.37;98327.93;105547;1288;22573;-81
2022/05/06 00:06:00;;;;;;;19.00;17.30;;;;;;;10.07;77.56;98325.71;105746;1288;22747;-82
2022/05/06 00:08:28;;;;;;;13.10;11.90;;;;;;;10.06;77.71;98332.94;105008;1288;25256;-79
2022/05/06 00:10:56;;;;;;;16.90;15.50;;;;;;;10.04;77.79;98335.83;104825;1288;24373;-82
2022/05/06 00:13:24;;;;;;;15.40;13.90;;;;;;;9.98;77.65;98337.49;104904;1288;22569;-81
2022/05/06 00:15:51;;;;;;;13.70;12.30;;;;;;;9.92;77.95;98344.66;104731;1288;22591;-81
2022/05/06 00:18:20;;;;;;;12.20;11.00;;;;;;;9.89;78.48;98352.91;105084;1288;26703;-83
2022/05/06 00:20:48;;;;;;;16.00;14.50;;;;;;;9.88;78.70;98353.52;104987;1288;25678;-82
2022/05/06 00:23:16;;;;;;;13.60;12.30;;;;;;;9.89;78.90;98353.17;104830;1288;22630;-81
2022/05/06 00:25:43;;;;;;;13.80;12.40;;;;;;;9.94;78.82;98356.58;104907;1288;24242;-83
2022/05/06 00:28:12;;;;;;;15.10;13.60;;;;;;;10.00;78.79;98356.97;104920;1288;22588;-81
2022/05/06 00:30:41;;;;;;;16.10;14.30;;;;;;;10.07;79.20;98359.39;104959;1288;22881;-81
2022/05/06 00:33:09;;;;;;;15.70;14.30;;;;;;;10.10;79.37;98363.87;104949;1288;24302;-81
2022/05/06 00:35:37;;;;;;;17.60;14.90;;;;;;;10.14;80.03;98364.20;104774;1288;22559;-81
2022/05/06 00:38:05;;;;;;;17.40;15.90;;;;;;;10.19;80.68;98364.16;104819;1288;22567;-81
2022/05/06 00:40:33;;;;;;;18.00;16.20;;;;;;;10.25;80.82;98359.70;104793;1288;22592;-80
2022/05/06 00:43:01;;;;;;;19.30;17.30;;;;;;;10.32;80.86;98356.58;104802;1288;22646;-81
2022/05/06 00:45:43;;;;;;;20.70;18.80;;;;;;;10.41;80.82;98363.11;104868;1288;22544;-80
2022/05/06 00:48:13;;;;;;;21.10;19.00;;;;;;;10.54;81.15;98361.56;104905;1288;22679;-81
2022/05/06 00:50:43;;;;;;;19.30;17.60;;;;;;;10.64;80.89;98356.06;104903;1288;22589;-81
2022/05/06 00:53:13;;;;;;;19.00;17.30;;;;;;;10.74;80.77;98359.71;104910;1288;25453;-81
2022/05/06 00:55:42;;;;;;;19.10;17.30;;;;;;;10.85;80.94;98362.70;106008;1287;22663;-81
2022/05/06 00:58:10;;;;;;;16.70;15.30;;;;;;;10.92;80.64;98367.58;108323;1288;22676;-80
2022/05/06 01:00:38;;;;;;;16.30;15.00;;;;;;;10.96;80.44;98362.02;108439;1288;22620;-81
2022/05/06 01:03:06;;;;;;;16.40;14.90;;;;;;;11.00;80.33;98364.13;106238;1288;22705;-81
2022/05/06 01:05:34;;;;;;;17.10;15.50;;;;;;;11.03;80.35;98363.92;104851;1288;22557;-82
2022/05/06 01:08:02;;;;;;;17.80;16.30;;;;;;;11.04;80.42;98361.48;104943;1288;24401;-81
2022/05/06 01:10:31;;;;;;;16.80;15.30;;;;;;;11.04;80.26;98358.25;104811;1288;24162;-81
2022/05/06 01:12:59;;;;;;;16.20;14.80;;;;;;;11.05;80.50;98357.79;104861;1288;22576;-81
2022/05/06 01:15:30;;;;;;;16.30;14.70;;;;;;;11.12;80.81;98362.45;104958;1288;22582;-81
2022/05/06 01:18:13;;;;;;;16.80;15.30;;;;;;;11.16;80.49;98361.54;104951;1288;22577;-82
2022/05/06 01:20:45;;;;;;;18.60;16.90;;;;;;;11.17;80.35;98361.26;104745;1288;25466;-81
2022/05/06 01:23:14;;;;;;;17.90;16.30;;;;;;;11.11;80.37;98359.18;104792;1288;24448;-82
2022/05/06 01:25:43;;;;;;;17.00;15.50;;;;;;;11.07;80.18;98357.77;104815;1290;22681;-81
2022/05/06 01:28:13;;;;;;;16.90;15.30;;;;;;;11.05;80.12;98356.02;104753;1288;22718;-81
2022/05/06 01:30:47;;;;;;;18.70;17.20;;;;;;;11.03;80.47;98352.77;104821;1288;24107;-80
2022/05/06 01:33:18;;;;;;;17.70;16.10;;;;;;;11.03;80.56;98360.31;104822;1288;24134;-79
2022/05/06 01:35:49;;;;;;;19.70;18.00;;;;;;;10.99;80.43;98364.23;104873;1288;22897;-80
2022/05/06 01:38:36;;;;;;;18.80;17.00;;;;;;;10.93;80.49;98367.29;104952;1288;22667;-81
2022/05/06 01:41:13;;;;;;;19.30;17.50;;;;;;;10.87;80.44;98369.58;104978;1288;22633;-82
2022/05/06 01:44:01;;;;;;;20.50;18.30;;;;;;;10.80;80.62;98368.75;104876;1289;25344;-81
2022/05/06 01:46:30;;;;;;;22.10;20.20;;;;;;;10.75;80.87;98367.79;104797;1288;22636;-81
2022/05/06 01:49:03;;;;;;;29.30;27.00;;;;;;;10.79;81.17;98367.90;104986;1288;25274;-81
2022/05/06 01:51:33;;;;;;;24.40;22.20;;;;;;;10.82;81.25;98369.36;104883;1289;22728;-81
2022/05/06 01:54:05;;;;;;;19.90;18.20;;;;;;;10.82;81.17;98373.95;104818;1288;22657;-81
2022/05/06 01:56:34;;;;;;;18.80;17.10;;;;;;;10.75;80.77;98376.35;104828;1289;22563;-82
2022/05/06 01:59:02;;;;;;;20.20;18.40;;;;;;;10.64;81.77;98370.92;104933;1288;22575;-81
2022/05/06 02:01:32;;;;;;;20.10;18.20;;;;;;;10.59;81.30;98372.71;104920;1289;22642;-82
2022/05/06 02:06:48;;;;;;;22.00;20.10;;;;;;;10.46;81.60;98380.23;104828;1289;22702;-81
2022/05/06 02:09:20;;;;;;;20.80;19.10;;;;;;;10.39;81.64;98385.58;104953;1288;22672;-80
2022/05/06 02:11:53;;;;;;;20.80;19.00;;;;;;;10.37;81.50;98387.34;104979;1288;25219;-81
2022/05/06 02:14:27;;;;;;;18.90;17.10;;;;;;;10.43;82.03;98384.27;105003;1288;22696;-81
2022/05/06 02:17:18;;;;;;;20.90;19.30;;;;;;;10.48;81.85;98381.58;104775;1288;24261;-82
2022/05/06 02:20:07;;;;;;;23.00;21.10;;;;;;;10.46;81.72;98375.13;104971;1288;24471;-81
2022/05/06 02:22:47;;;;;;;38.80;35.70;;;;;;;10.43;81.92;98373.52;104959;1288;22572;-80
2022/05/06 02:25:35;;;;;;;44.80;41.30;;;;;;;10.45;81.85;98374.42;104808;1288;22596;-81
2022/05/06 02:28:24;;;;;;;34.90;32.00;;;;;;;10.51;82.47;98368.70;104634;1288;22541;-81
2022/05/06 02:33:54;;;;;;;23.30;21.50;;;;;;;10.63;82.61;98370.30;104994;1288;22639;-81
2022/05/06 02:36:25;;;;;;;22.70;20.80;;;;;;;10.63;82.49;98370.49;105078;1288;22559;-80
2022/05/06 02:38:53;;;;;;;22.60;20.60;;;;;;;10.59;82.54;98376.31;104801;1288;22729;-81
2022/05/06 02:41:22;;;;;;;21.70;19.70;;;;;;;10.58;82.40;98382.52;104991;1288;22589;-81
2022/05/06 02:43:53;;;;;;;27.40;24.70;;;;;;;10.58;82.22;98388.02;104957;1288;22592;-80
2022/05/06 02:46:23;;;;;;;29.50;26.60;;;;;;;10.59;82.39;98397.77;104901;1289;22747;-83
2022/05/06 02:48:51;;;;;;;31.00;28.40;;;;;;;10.59;82.63;98399.70;104614;1291;24116;-82
2022/05/06 02:51:21;;;;;;;32.10;29.40;;;;;;;10.61;82.60;98403.90;104843;1288;22563;-82
2022/05/06 02:53:49;;;;;;;33.20;30.50;;;;;;;10.62;82.43;98406.15;104746;1288;25334;-82
2022/05/06 02:56:20;;;;;;;31.20;28.70;;;;;;;10.64;82.46;98411.84;104855;1288;22639;-81
2022/05/06 02:58:51;;;;;;;32.50;29.90;;;;;;;10.65;82.15;98413.35;104789;1288;24266;-81
2022/05/06 03:01:20;;;;;;;32.70;30.00;;;;;;;10.65;82.28;98412.90;104781;1288;22568;-80
2022/05/06 03:03:51;;;;;;;36.30;33.40;;;;;;;10.69;82.65;98415.35;104805;1288;22578;-82
2022/05/06 03:06:20;;;;;;;38.50;35.40;;;;;;;10.72;82.60;98420.10;104826;1288;22614;-80
2022/05/06 03:08:50;;;;;;;38.90;35.70;;;;;;;10.73;82.63;98422.36;104812;1288;22561;-81
2022/05/06 03:11:21;;;;;;;38.20;34.80;;;;;;;10.71;82.51;98426.91;104767;1288;22678;-80
2022/05/06 03:13:54;;;;;;;35.20;32.30;;;;;;;10.73;82.40;98429.75;104793;1288;22643;-81
2022/05/06 03:16:25;;;;;;;36.20;33.30;;;;;;;10.74;82.51;98436.38;105008;1288;22603;-81
2022/05/06 03:18:53;;;;;;;42.00;38.50;;;;;;;10.75;82.51;98433.77;105045;1288;22636;-82
2022/05/06 03:21:21;;;;;;;42.40;38.90;;;;;;;10.78;82.80;98430.55;105095;1288;24838;-81
2022/05/06 03:23:53;;;;;;;39.00;35.60;;;;;;;10.78;82.82;98414.05;104678;1288;22578;-81
2022/05/06 03:26:21;;;;;;;33.90;31.20;;;;;;;10.79;82.74;98416.25;104666;1288;22639;-81
2022/05/06 03:28:49;;;;;;;35.10;32.20;;;;;;;10.81;82.72;98417.64;104834;1289;25296;-81
2022/05/06 03:31:18;;;;;;;39.90;36.80;;;;;;;10.81;82.71;98421.08;104760;1288;22737;-80
2022/05/06 03:33:57;;;;;;;42.90;39.40;;;;;;;10.83;82.66;98422.40;104762;1288;22569;-81
2022/05/06 03:36:29;;;;;;;;;;;;;;;10.84;83.07;98423.85;104785;1288;22564;-81
2022/05/06 03:39:06;;;;;;;39.10;35.80;;;;;;;10.83;82.87;98425.42;104955;1290;22707;-80
2022/05/06 03:41:43;;;;;;;39.10;35.90;;;;;;;10.82;82.89;98419.82;104822;1289;22678;-81
2022/05/06 03:44:11;;;;;;;38.30;35.20;;;;;;;10.84;82.84;98417.02;104856;1288;25463;-82
2022/05/06 03:46:42;;;;;;;38.70;35.70;;;;;;;10.87;82.95;98417.56;104855;1288;22589;-80
2022/05/06 03:49:16;;;;;;;39.40;36.20;;;;;;;10.88;83.17;98416.42;104956;1288;22554;-81
2022/05/06 03:51:46;;;;;;;37.00;33.90;;;;;;;10.90;83.43;98417.31;105000;1288;22688;-81
2022/05/06 03:54:17;;;;;;;34.40;31.60;;;;;;;10.91;83.36;98420.48;104978;1288;22715;-81
2022/05/06 03:56:45;;;;;;;34.10;31.40;;;;;;;10.93;83.25;98422.50;104921;1288;23020;-81
2022/05/06 03:59:14;;;;;;;36.50;33.50;;;;;;;10.95;83.25;98416.55;104838;1289;22567;-81
2022/05/06 04:01:47;;;;;;;45.40;41.80;;;;;;;10.95;83.35;98412.20;104862;1288;22584;-80
2022/05/06 04:04:21;;;;;;;36.20;33.30;;;;;;;10.92;83.38;98406.94;104957;1288;22629;-81
2022/05/06 04:06:50;;;;;;;33.00;30.30;;;;;;;10.92;83.40;98407.05;104897;1288;22704;-81
2022/05/06 04:09:20;;;;;;;34.50;31.90;;;;;;;10.94;83.44;98405.46;104807;1288;22694;-81
2022/05/06 04:11:48;;;;;;;33.30;30.60;;;;;;;10.97;83.66;98413.25;104752;1288;22628;-81
2022/05/06 04:14:17;;;;;;;36.10;33.00;;;;;;;10.98;83.76;98409.79;104749;1288;22575;-82
2022/05/06 04:16:46;;;;;;;36.40;33.20;;;;;;;11.01;83.80;98411.73;104784;1288;24241;-82
2022/05/06 04:19:34;;;;;;;32.80;30.10;;;;;;;11.01;83.67;98411.89;104871;1289;24457;-81
2022/05/06 04:25:00;;;;;;;37.40;34.50;;;;;;;11.11;83.95;98418.13;104868;1288;22572;-81
2022/05/06 04:27:29;;;;;;;38.10;35.10;;;;;;;11.22;84.38;98420.54;104782;1288;22633;-82
2022/05/06 04:29:58;;;;;;;34.60;31.70;;;;;;;11.31;84.58;98421.87;104753;1288;22643;-81
2022/05/06 04:32:34;;;;;;;32.00;29.60;;;;;;;11.35;84.44;98422.95;104738;1289;25370;-81
2022/05/06 04:35:06;;;;;;;31.40;28.70;;;;;;;11.38;84.25;98419.51;104844;1288;25439;-82
2022/05/06 04:37:35;;;;;;;30.30;27.90;;;;;;;11.44;84.43;98419.52;104831;1288;24297;-81
2022/05/06 04:40:05;;;;;;;31.20;28.50;;;;;;;11.52;84.54;98422.93;104852;1288;22628;-80
2022/05/06 04:42:34;;;;;;;36.40;33.60;;;;;;;11.62;84.60;98426.58;104776;1287;22699;-81
2022/05/06 04:45:03;;;;;;;35.90;33.00;;;;;;;11.68;84.59;98431.27;104843;1288;22595;-80
2022/05/06 04:47:31;;;;;;;35.40;32.50;;;;;;;11.75;84.58;98438.09;104746;1291;24786;-82
2022/05/06 04:49:59;;;;;;;36.10;33.20;;;;;;;11.83;84.55;98440.41;104915;1289;24370;-79
2022/05/06 04:52:27;;;;;;;36.10;32.90;;;;;;;11.92;84.60;98441.91;105039;1288;22572;-82
2022/05/06 04:54:55;;;;;;;43.90;40.30;;;;;;;11.97;84.65;98445.02;105417;1289;22551;-80
2022/05/06 04:57:23;;;;;;;40.10;36.70;;;;;;;12.02;84.69;98443.86;105883;1290;22887;-82
2022/05/06 04:59:52;;;;;;;43.20;39.50;;;;;;;12.11;84.83;98442.41;104927;1289;24288;-82
2022/05/06 05:02:21;;;;;;;45.50;41.30;;;;;;;12.20;84.46;98449.01;104895;1289;25368;-83
2022/05/06 05:04:56;;;;;;;42.90;39.30;;;;;;;12.26;84.51;98450.05;104931;1288;25377;-82
2022/05/06 05:07:25;;;;;;;49.30;45.00;;;;;;;12.33;84.84;98448.38;104987;1288;22563;-85
2022/05/06 05:09:55;;;;;;;51.90;47.20;;;;;;;12.41;84.80;98445.58;104735;1289;22663;-83
2022/05/06 05:12:24;;;;;;;44.10;40.30;;;;;;;12.48;84.59;98446.06;104825;1291;22602;-81
2022/05/06 05:14:53;;;;;;;39.70;36.50;;;;;;;12.55;84.78;98443.02;104904;1288;22565;-82
2022/05/06 05:17:23;;;;;;;37.90;34.70;;;;;;;12.63;84.68;98441.14;104988;1288;22590;-82
2022/05/06 05:19:53;;;;;;;42.20;38.60;;;;;;;12.73;85.05;98441.39;105112;1288;22657;-82
2022/05/06 05:22:22;;;;;;;42.10;38.30;;;;;;;12.84;85.01;98441.12;104895;1288;25272;-81
2022/05/06 05:24:51;;;;;;;40.30;36.80;;;;;;;12.89;84.75;98447.04;104836;1288;22572;-81
2022/05/06 05:27:19;;;;;;;41.90;38.30;;;;;;;12.90;84.55;98450.06;104872;1288;22561;-81
2022/05/06 05:29:48;;;;;;;39.50;36.10;;;;;;;12.85;84.26;98454.96;104965;1288;22705;-81
2022/05/06 05:32:18;;;;;;;40.20;36.90;;;;;;;12.79;84.23;98459.83;104845;1288;25269;-82
2022/05/06 05:34:46;;;;;;;40.20;36.90;;;;;;;12.76;84.42;98459.84;104775;1289;22900;-81
2022/05/06 05:37:17;;;;;;;40.40;37.00;;;;;;;12.71;84.56;98461.75;104756;1288;22563;-81
2022/05/06 05:39:46;;;;;;;41.00;37.70;;;;;;;12.69;84.59;98461.10;104830;1288;22573;-81
2022/05/06 05:42:21;;;;;;;40.10;36.90;;;;;;;12.70;84.62;98463.40;104816;1290;23976;-81
2022/05/06 05:50:27;;;;;;;41.20;37.70;;;;;;;12.84;84.98;98472.77;104883;1289;22779;-80
2022/05/06 05:52:58;;;;;;;37.80;34.60;;;;;;;12.89;85.15;98472.08;104775;1288;22590;-82
2022/05/06 05:55:26;;;;;;;35.90;33.00;;;;;;;12.96;85.15;98469.89;105169;1288;22569;-81
2022/05/06 05:57:56;;;;;;;36.30;33.00;;;;;;;13.03;85.01;98471.86;104954;1288;25839;-81
2022/05/06 06:00:27;;;;;;;38.40;35.00;;;;;;;13.11;85.03;98469.59;104793;1288;22706;-81
2022/05/06 06:02:56;;;;;;;36.90;33.80;;;;;;;13.19;84.91;98467.64;105002;1288;22877;-81
2022/05/06 06:05:25;;;;;;;39.30;36.10;;;;;;;13.24;84.85;98471.30;104946;1288;22642;-81
2022/05/06 06:07:52;;;;;;;37.10;33.80;;;;;;;13.26;84.55;98472.51;104874;1288;22560;-81
2022/05/06 06:10:22;;;;;;;37.50;34.20;;;;;;;13.27;84.58;98472.78;104818;1288;24317;-81
2022/05/06 06:13:01;;;;;;;34.00;31.10;;;;;;;13.28;84.56;98477.67;105053;1288;22627;-81
2022/05/06 06:15:32;;;;;;;39.00;35.40;;;;;;;13.36;84.58;98483.42;104816;1289;22548;-82
2022/05/06 06:18:01;;;;;;;46.60;42.60;;;;;;;13.40;84.36;98486.20;105194;1288;22522;-81
2022/05/06 06:20:30;;;;;;;53.10;48.50;;;;;;;13.43;84.68;98485.59;108224;1288;22666;-80
2022/05/06 06:22:58;;;;;;;55.00;49.90;;;;;;;13.51;85.12;98484.08;108161;1288;22659;-80
2022/05/06 06:25:26;;;;;;;58.20;52.70;;;;;;;13.58;84.81;98487.84;107955;1288;22690;-81
2022/05/06 06:27:57;;;;;;;52.40;47.90;;;;;;;13.62;84.64;98487.83;107765;1288;22610;-81
2022/05/06 06:30:26;;;;;;;54.40;50.10;;;;;;;13.65;84.51;98493.98;106508;1289;24245;-82
2022/05/06 06:32:57;;;;;;;59.00;54.00;;;;;;;13.66;84.45;98497.20;105154;1288;22568;-82
2022/05/06 06:35:25;;;;;;;62.10;56.60;;;;;;;13.65;84.44;98501.42;104938;1291;22636;-84
2022/05/06 06:38:00;;;;;;;58.90;54.00;;;;;;;13.60;84.46;98498.87;104900;1289;24698;-85
2022/05/06 06:40:32;;;;;;;58.70;53.60;;;;;;;13.56;84.39;98499.29;105008;1288;22587;-81
2022/05/06 06:43:04;;;;;;;59.90;54.60;;;;;;;13.54;84.51;98499.92;104826;1288;24105;-81
2022/05/06 06:45:57;;;;;;;70.40;64.00;;;;;;;13.55;84.48;98507.60;104913;1288;22638;-82
2022/05/06 06:48:47;;;;;;;74.70;68.60;;;;;;;13.48;84.15;98504.75;104837;1288;22706;-82
2022/05/06 06:51:35;;;;;;;68.40;61.90;;;;;;;13.38;84.27;98503.20;104861;1288;24468;-81
2022/05/06 06:54:03;;;;;;;72.90;66.40;;;;;;;13.27;83.90;98503.29;104758;1288;22641;-79
2022/05/06 06:56:31;;;;;;;70.50;64.60;;;;;;;13.22;84.25;98504.58;104986;1288;24105;-83
2022/05/06 06:58:59;;;;;;;62.90;57.40;;;;;;;13.24;84.37;98510.49;105108;1288;22704;-81
2022/05/06 07:01:27;;;;;;;64.40;58.80;;;;;;;13.23;84.29;98504.44;104942;1288;24427;-81
2022/05/06 07:03:55;;;;;;;77.50;71.20;;;;;;;13.22;84.45;98506.08;104847;1289;24383;-82
2022/05/06 07:11:58;;;;;;;69.20;63.30;;;;;;;13.30;84.96;98509.31;104933;1288;22586;-80
2022/05/06 07:14:33;;;;;;;64.70;58.90;;;;;;;13.34;84.85;98505.70;104928;1289;22562;-81
2022/05/06 07:17:02;;;;;;;68.70;62.70;;;;;;;13.41;84.97;98506.05;104811;1288;23245;-82
2022/05/06 07:19:31;;;;;;;65.60;60.00;;;;;;;13.47;84.94;98511.45;104842;1288;24430;-82
2022/05/06 07:21:59;;;;;;;68.50;62.60;;;;;;;13.48;84.91;98514.66;104942;1288;22572;-82
2022/05/06 07:24:26;;;;;;;66.80;60.80;;;;;;;13.44;84.47;98516.05;104939;1288;25520;-80
2022/05/06 07:26:55;;;;;;;62.30;56.80;;;;;;;13.39;84.37;98516.70;104912;1289;23079;-81
2022/05/06 07:29:23;;;;;;;65.70;59.90;;;;;;;13.38;84.50;98520.45;104787;1288;22821;-82
2022/05/06 07:31:51;;;;;;;63.00;57.50;;;;;;;13.39;84.44;98521.07;104820;1291;22597;-81
2022/05/06 07:34:19;;;;;;;70.60;64.20;;;;;;;13.43;84.93;98520.08;104784;1289;22672;-82
2022/05/06 07:36:47;;;;;;;68.80;62.40;;;;;;;13.47;85.03;98524.83;104824;1291;22537;-81
2022/05/06 07:39:15;;;;;;;72.20;64.80;;;;;;;13.47;84.78;98527.21;104888;1288;25262;-82
2022/05/06 07:41:44;;;;;;;66.80;60.90;;;;;;;13.46;84.93;98526.40;104840;1288;22707;-82
2022/05/06 07:44:12;;;;;;;66.30;60.40;;;;;;;13.51;84.92;98530.27;104845;1288;22616;-81
2022/05/06 07:46:40;;;;;;;67.90;61.50;;;;;;;13.56;84.92;98529.83;104860;1288;22573;-81
2022/05/06 07:49:09;;;;;;;70.80;64.40;;;;;;;13.63;84.93;98529.10;105001;1288;22572;-80
2022/05/06 07:51:36;;;;;;;61.50;56.10;;;;;;;13.63;85.10;98533.30;104820;1290;24258;-83
2022/05/06 07:54:04;;;;;;;61.80;56.30;;;;;;;13.63;84.85;98532.18;104873;1288;22575;-81
2022/05/06 07:56:32;;;;;;;63.70;58.20;;;;;;;13.64;84.97;98535.34;104842;1288;24481;-81
2022/05/06 07:59:00;;;;;;;61.10;55.50;;;;;;;13.64;84.90;98539.52;104911;1289;26656;-81
2022/05/06 08:04:34;;;;;;;61.40;55.90;;;;;;;13.69;85.56;98541.86;104847;1288;24386;-81
2022/05/06 08:07:05;;;;;;;58.80;53.00;;;;;;;13.72;85.23;98540.88;104925;1288;22640;-81
2022/05/06 08:09:34;;;;;;;60.30;54.80;;;;;;;13.74;85.31;98539.97;104924;1289;22580;-81
2022/05/06 08:12:03;;;;;;;56.00;51.00;;;;;;;13.84;85.46;98538.73;105022;1288;23544;-81
2022/05/06 08:14:31;;;;;;;57.30;52.20;;;;;;;13.88;85.02;98544.05;104842;1289;23200;-81
2022/05/06 08:17:00;;;;;;;54.60;49.80;;;;;;;13.91;85.04;98546.15;104765;1288;22951;-82
2022/05/06 08:19:29;;;;;;;55.40;50.70;;;;;;;13.92;84.98;98542.50;104867;1288;22615;-81
2022/05/06 08:22:00;;;;;;;57.00;51.70;;;;;;;13.89;85.13;98543.97;104887;1288;24124;-81
2022/05/06 08:24:28;;;;;;;51.60;47.00;;;;;;;13.91;85.13;98548.87;104799;1288;22589;-82
2022/05/06 08:26:56;;;;;;;53.00;47.80;;;;;;;13.94;85.25;98548.80;104830;1288;22714;-81
2022/05/06 08:29:24;;;;;;;49.00;44.70;;;;;;;14.00;85.15;98546.73;104860;1288;25320;-81
2022/05/06 08:31:52;;;;;;;49.20;44.90;;;;;;;14.04;85.27;98552.38;104923;1288;22559;-82
2022/05/06 08:34:20;;;;;;;53.30;48.70;;;;;;;14.10;85.40;98548.82;104964;1290;25547;-81
2022/05/06 08:36:48;;;;;;;50.50;46.00;;;;;;;14.17;85.40;98556.25;105055;1288;24438;-80
2022/05/06 08:39:16;;;;;;;47.60;43.40;;;;;;;14.26;85.40;98559.67;104869;1289;22596;-82
2022/05/06 08:41:44;;;;;;;49.50;45.10;;;;;;;14.31;85.20;98560.16;104769;1289;22603;-83
2022/05/06 08:52:39;;;;;;;42.70;39.00;;;;;;;14.59;84.98;98552.79;104734;1290;24258;-81
2022/05/06 08:55:08;;;;;;;43.20;39.20;;;;;;;14.64;84.93;98548.77;104915;1288;24533;-83
2022/05/06 08:57:36;;;;;;;37.90;34.70;;;;;;;14.70;84.79;98551.34;104856;1288;24449;-82
2022/05/06 09:00:05;;;;;;;37.50;34.30;;;;;;;14.75;84.79;98556.24;104840;1288;22899;-80
2022/05/06 09:02:33;;;;;;;41.60;37.90;;;;;;;14.74;84.10;98556.70;104839;1288;25441;-81
2022/05/06 09:05:01;;;;;;;42.20;38.40;;;;;;;14.73;84.10;98557.98;104795;1289;24102;-82
2022/05/06 09:07:29;;;;;;;41.00;37.40;;;;;;;14.75;84.43;98556.16;104810;1289;22635;-82
2022/05/06 09:10:03;;;;;;;38.60;35.30;;;;;;;14.78;84.17;98555.38;104809;1288;24285;-81
2022/05/06 09:12:44;;;;;;;41.00;37.10;;;;;;;14.83;84.09;98561.14;104761;1289;23329;-81
2022/05/06 09:18:05;;;;;;;41.90;38.10;;;;;;;15.05;83.54;98556.42;104892;1288;22579;-82
2022/05/06 09:20:37;;;;;;;42.50;39.00;;;;;;;15.15;84.19;98558.48;104852;1289;25388;-82
2022/05/06 09:23:24;;;;;;;41.90;38.30;;;;;;;15.29;84.25;98558.75;104791;1290;25686;-82
2022/05/06 09:25:53;;;;;;;42.20;38.60;;;;;;;15.49;84.36;98561.90;104913;1289;22725;-82
2022/05/06 09:28:28;;;;;;;41.00;37.20;;;;;;;15.60;83.44;98563.92;104809;1289;22744;-80
2022/05/06 09:31:09;;;;;;;41.80;38.20;;;;;;;15.66;83.20;98570.29;104775;1288;22604;-82
2022/05/06 09:33:42;;;;;;;40.70;37.40;;;;;;;15.70;82.74;98573.82;104796;1289;22605;-81
2022/05/06 09:36:29;;;;;;;39.00;35.60;;;;;;;15.69;82.63;98572.66;104781;1289;22634;-82
2022/05/06 09:39:05;;;;;;;37.00;33.60;;;;;;;15.64;82.53;98569.52;104801;1289;22872;-81
2022/05/06 09:41:36;;;;;;;34.80;32.00;;;;;;;15.70;82.48;98567.52;105102;1290;22638;-83
2022/05/06 09:44:06;;;;;;;33.30;30.40;;;;;;;15.80;82.81;98565.81;104898;1289;23258;-85
2022/05/06 09:46:36;;;;;;;33.30;30.40;;;;;;;15.93;82.67;98562.71;104946;1289;25382;-81
2022/05/06 09:49:04;;;;;;;32.70;29.80;;;;;;;15.96;81.95;98563.55;104969;1289;22572;-82
2022/05/06 09:51:52;;;;;;;32.60;29.70;;;;;;;16.05;82.27;98559.59;105155;1290;25637;-81
2022/05/06 09:54:31;;;;;;;30.60;27.60;;;;;;;16.14;82.13;98563.27;105605;1288;22569;-84
2022/05/06 09:57:02;;;;;;;28.60;26.10;;;;;;;16.23;81.89;98564.20;104926;1290;24239;-83
2022/05/06 10:00:22;;;;;;;29.30;26.40;;;;;;;16.27;81.51;98561.98;104932;1289;25256;-81
2022/05/06 10:02:50;;;;;;;30.60;27.90;;;;;;;16.28;81.17;98567.09;104874;1288;22572;-82
2022/05/06 10:05:18;;;;;;;31.30;28.60;;;;;;;16.24;80.30;98569.17;104949;1290;25370;-81
2022/05/06 10:07:47;;;;;;;34.20;30.90;;;;;;;16.20;80.65;98567.79;104905;1288;25530;-81
2022/05/06 10:10:21;;;;;;;32.60;29.60;;;;;;;16.23;80.94;98566.46;104814;1290;22640;-81
2022/05/06 10:12:53;;;;;;;30.90;28.10;;;;;;;16.25;80.29;98564.85;104890;1289;22753;-81
2022/05/06 10:15:24;;;;;;;31.30;28.40;;;;;;;16.28;80.70;98568.41;104860;1290;22710;-81
2022/05/06 10:17:54;;;;;;;31.40;28.30;;;;;;;16.35;79.80;98560.73;105009;1288;265224;-82
2022/05/06 10:20:34;;;;;;;33.50;30.40;;;;;;;16.35;79.82;98567.48;105225;1289;22570;-82
2022/05/06 10:23:08;;;;;;;32.00;29.10;;;;;;;16.35;79.67;98567.64;105092;1290;22627;-82
2022/05/06 10:25:42;;;;;;;30.20;27.50;;;;;;;16.29;79.33;98570.80;104780;1289;22582;-80
2022/05/06 10:34:11;;;;;;;32.30;29.70;;;;;;;16.35;79.26;98572.05;104923;1290;24820;-81
2022/05/06 10:36:47;;;;;;;29.70;27.10;;;;;;;16.36;78.90;98572.58;104941;1289;22560;-81
2022/05/06 10:39:22;;;;;;;28.30;25.80;;;;;;;16.33;78.68;98574.33;104891;1288;24289;-81
2022/05/06 10:42:06;;;;;;;28.30;25.80;;;;;;;16.29;78.62;98571.13;104839;1289;22599;-81
2022/05/06 10:44:42;;;;;;;29.10;26.60;;;;;;;16.37;78.60;98561.52;104849;1290;22548;-81
2022/05/06 10:47:18;;;;;;;32.90;30.00;;;;;;;16.50;78.62;98560.14;104836;1288;22622;-81
2022/05/06 10:49:51;;;;;;;31.10;28.30;;;;;;;16.61;78.14;98558.98;104881;1290;22565;-82
2022/05/06 10:52:25;;;;;;;31.00;28.20;;;;;;;16.69;77.83;98553.11;104879;1290;25420;-81
2022/05/06 10:55:01;;;;;;;30.70;27.80;;;;;;;16.77;77.93;98550.77;104831;1288;25242;-81
2022/05/06 10:57:44;;;;;;;31.70;28.90;;;;;;;16.86;77.02;98551.83;104817;1289;22667;-82
2022/05/06 11:00:12;;;;;;;29.40;26.60;;;;;;;16.84;76.43;98550.91;104873;1290;22632;-82
2022/05/06 11:02:40;;;;;;;30.30;27.50;;;;;;;16.88;76.39;98549.35;104832;1289;25492;-82
2022/05/06 11:05:11;;;;;;;31.70;28.70;;;;;;;16.96;76.43;98546.29;104860;1289;25673;-82
2022/05/06 11:07:41;;;;;;;31.90;28.80;;;;;;;17.05;76.59;98545.88;104936;1289;22642;-81
2022/05/06 11:10:21;;;;;;;28.50;26.10;;;;;;;17.17;76.31;98544.17;104841;1289;22734;-80
2022/05/06 11:12:59;;;;;;;27.70;25.20;;;;;;;17.20;75.28;98535.70;104998;1288;24239;-81
2022/05/06 11:15:30;;;;;;;27.00;24.50;;;;;;;17.29;75.24;98535.25;104963;1289;22716;-82
2022/05/06 11:18:00;;;;;;;23.50;21.30;;;;;;;17.32;75.09;98531.81;104919;1289;25245;-81
2022/05/06 11:20:33;;;;;;;26.50;24.00;;;;;;;17.31;75.03;98527.42;104842;1289;24311;-81
2022/05/06 11:23:14;;;;;;;28.40;25.90;;;;;;;17.31;74.23;98533.80;104878;1288;25346;-82
2022/05/06 11:25:46;;;;;;;27.60;25.30;;;;;;;17.27;74.42;98537.50;104882;1290;22874;-81
2022/05/06 11:28:17;;;;;;;25.60;23.30;;;;;;;17.21;74.47;98535.02;104827;1288;22755;-80
2022/05/06 11:30:47;;;;;;;26.20;23.70;;;;;;;17.17;74.43;98534.80;104899;1289;22877;-82
2022/05/06 11:33:34;;;;;;;25.00;22.60;;;;;;;17.13;73.81;98533.36;104900;1289;22572;-82
2022/05/06 11:36:05;;;;;;;25.40;23.10;;;;;;;17.01;73.32;98526.74;104841;1289;22586;-81
2022/05/06 11:38:46;;;;;;;24.60;22.50;;;;;;;16.91;73.62;98526.61;104835;1289;23745;-82
2022/05/06 11:41:17;;;;;;;25.10;22.70;;;;;;;16.84;73.48;98525.26;104902;1288;25317;-82
2022/05/06 11:43:46;;;;;;;26.00;23.50;;;;;;;16.79;73.30;98525.27;104941;1288;25390;-83
2022/05/06 11:49:08;;;;;;;27.60;25.10;;;;;;;16.70;73.23;98530.06;104856;1288;25351;-82
2022/05/06 11:51:44;;;;;;;26.70;24.20;;;;;;;16.70;73.30;98527.88;104802;1288;22873;-81
2022/05/06 11:54:17;;;;;;;28.70;26.30;;;;;;;16.71;73.52;98527.34;104990;1288;23486;-81
2022/05/06 11:56:47;;;;;;;28.90;26.40;;;;;;;16.75;73.45;98531.43;105051;1289;22580;-82
2022/05/06 11:59:17;;;;;;;43.20;39.50;;;;;;;16.77;73.36;98534.52;104921;1288;24293;-81
2022/05/06 12:01:45;;;;;;;43.80;40.00;;;;;;;16.75;73.26;98537.94;105030;1290;22555;-83
2022/05/06 12:04:13;;;;;;;42.70;39.00;;;;;;;16.72;73.22;98536.13;104987;1288;24346;-83
2022/05/06 12:06:49;;;;;;;42.90;39.20;;;;;;;16.66;73.30;98532.08;104862;1288;22573;-81
2022/05/06 12:09:21;;;;;;;45.60;41.50;;;;;;;16.59;73.38;98532.32;104826;1288;22583;-81
2022/05/06 12:12:05;;;;;;;48.70;43.60;;;;;;;16.54;73.55;98531.73;104909;1288;22798;-81